sensor_id;sensor_type;location;lat;lon;timestamp;P1;durP1;ratioP1;P2;durP2;ratioP2
39400;SDS011;54391;50.000;7.360;2023-11-19T00:01:28;0.00;;;0.00;;
39400;SDS011;54391;50.000;7.360;2023-11-19T00:03:56;0.22;;;0.00;;
39400;SDS011;54391;50.000;7.360;2023-11-19T00:06:23;0.00;;;0.00;;
39400;SDS011;54391;50.000;7.360;2023-11-19T00:08:51;0.00;;;0.00;;
39400;SDS011;54391;50.000;7.360;2023-11-19T00:11:18;0.00;;;0.00;;
39400;SDS011;54391;50.000;7.360;2023-11-19T00:13:45;0.00;;;0.00;;
39400;SDS011;54391;50.000;7.360;2023-11-19T00:16:12;0.43;;;0.00;;
39400;SDS011;54391;50.000;7.360;2023-11-19T00:18:43;0.00;;;0.00;;
39400;SDS011;54391;50.000;7.360;2023-11-19T00:21:10;0.00;;;0.00;;
39400;SDS011;54391;50.000;7.360;2023-11-19T00:23:37;0.10;;;0.00;;
39400;SDS011;54391;50.000;7.360;2023-11-19T00:26:05;0.08;;;0.00;;
39400;SDS011;54391;50.000;7.360;2023-11-19T00:28:32;0.10;;;0.00;;
39400;SDS011;54391;50.000;7.360;2023-11-19T00:31:00;0.00;;;0.00;;
39400;SDS011;54391;50.000;7.360;2023-11-19T00:33:28;0.00;;;0.00;;
39400;SDS011;54391;50.000;7.360;2023-11-19T00:35:57;0.08;;;0.00;;
39400;SDS011;54391;50.000;7.360;2023-11-19T00:38:25;0.00;;;0.00;;
39400;SDS011;54391;50.000;7.360;2023-11-19T00:40:52;0.00;;;0.00;;
39400;SDS011;54391;50.000;7.360;2023-11-19T00:43:19;0.00;;;0.00;;
39400;SDS011;54391;50.000;7.360;2023-11-19T00:45:47;0.03;;;0.00;;
39400;SDS011;54391;50.000;7.360;2023-11-19T00:48:16;1.15;;;0.00;;
39400;SDS011;54391;50.000;7.360;2023-11-19T00:50:43;0.17;;;0.00;;
39400;SDS011;54391;50.000;7.360;2023-11-19T00:53:13;0.00;;;0.00;;
39400;SDS011;54391;50.000;7.360;2023-11-19T00:55:40;0.00;;;0.00;;
39400;SDS011;54391;50.000;7.360;2023-11-19T00:58:07;0.00;;;0.00;;
39400;SDS011;54391;50.000;7.360;2023-11-19T01:00:35;0.00;;;0.00;;
39400;SDS011;54391;50.000;7.360;2023-11-19T01:03:02;0.00;;;0.00;;
39400;SDS011;54391;50.000;7.360;2023-11-19T01:05:29;0.52;;;0.00;;
39400;SDS011;54391;50.000;7.360;2023-11-19T01:07:56;0.00;;;0.00;;
39400;SDS011;54391;50.000;7.360;2023-11-19T01:10:25;0.20;;;0.00;;
39400;SDS011;54391;50.000;7.360;2023-11-19T01:15:52;0.00;;;0.00;;
39400;SDS011;54391;50.000;7.360;2023-11-19T01:22:09;0.43;;;0.00;;
39400;SDS011;54391;50.000;7.360;2023-11-19T01:24:36;0.45;;;0.00;;
39400;SDS011;54391;50.000;7.360;2023-11-19T01:27:05;0.47;;;0.00;;
39400;SDS011;54391;50.000;7.360;2023-11-19T01:29:32;0.47;;;0.20;;
39400;SDS011;54391;50.000;7.360;2023-11-19T01:31:59;0.10;;;0.00;;
39400;SDS011;54391;50.000;7.360;2023-11-19T01:34:26;0.00;;;0.00;;
39400;SDS011;54391;50.000;7.360;2023-11-19T01:36:54;0.85;;;0.00;;
39400;SDS011;54391;50.000;7.360;2023-11-19T01:39:21;0.20;;;0.00;;
39400;SDS011;54391;50.000;7.360;2023-11-19T01:41:48;0.00;;;0.00;;
39400;SDS011;54391;50.000;7.360;2023-11-19T01:44:17;0.00;;;0.00;;
39400;SDS011;54391;50.000;7.360;2023-11-19T01:46:45;0.00;;;0.00;;
39400;SDS011;54391;50.000;7.360;2023-11-19T01:49:14;0.00;;;0.00;;
39400;SDS011;54391;50.000;7.360;2023-11-19T01:54:52;0.80;;;0.15;;
39400;SDS011;54391;50.000;7.360;2023-11-19T01:57:20;0.80;;;0.10;;
39400;SDS011;54391;50.000;7.360;2023-11-19T01:59:51;0.20;;;0.08;;
39400;SDS011;54391;50.000;7.360;2023-11-19T02:02:19;0.70;;;0.10;;
39400;SDS011;54391;50.000;7.360;2023-11-19T02:04:47;0.00;;;0.00;;
39400;SDS011;54391;50.000;7.360;2023-11-19T02:07:16;0.20;;;0.00;;
39400;SDS011;54391;50.000;7.360;2023-11-19T02:09:43;0.00;;;0.00;;
39400;SDS011;54391;50.000;7.360;2023-11-19T02:12:10;0.03;;;0.00;;
39400;SDS011;54391;50.000;7.360;2023-11-19T02:14:38;0.17;;;0.10;;
39400;SDS011;54391;50.000;7.360;2023-11-19T02:17:08;0.00;;;0.00;;
39400;SDS011;54391;50.000;7.360;2023-11-19T02:19:52;0.28;;;0.10;;
39400;SDS011;54391;50.000;7.360;2023-11-19T02:22:19;0.20;;;0.10;;
39400;SDS011;54391;50.000;7.360;2023-11-19T02:24:47;0.10;;;0.10;;
39400;SDS011;54391;50.000;7.360;2023-11-19T02:27:20;0.08;;;0.00;;
39400;SDS011;54391;50.000;7.360;2023-11-19T02:29:55;0.10;;;0.10;;
39400;SDS011;54391;50.000;7.360;2023-11-19T02:32:23;0.10;;;0.00;;
39400;SDS011;54391;50.000;7.360;2023-11-19T02:34:53;0.20;;;0.00;;
39400;SDS011;54391;50.000;7.360;2023-11-19T02:37:30;0.00;;;0.00;;
39400;SDS011;54391;50.000;7.360;2023-11-19T02:39:57;0.10;;;0.00;;
39400;SDS011;54391;50.000;7.360;2023-11-19T02:42:28;0.10;;;0.00;;
39400;SDS011;54391;50.000;7.360;2023-11-19T02:44:57;0.00;;;0.00;;
39400;SDS011;54391;50.000;7.360;2023-11-19T02:47:24;0.08;;;0.08;;
39400;SDS011;54391;50.000;7.360;2023-11-19T02:49:53;0.00;;;0.00;;
39400;SDS011;54391;50.000;7.360;2023-11-19T02:52:20;0.00;;;0.00;;
39400;SDS011;54391;50.000;7.360;2023-11-19T02:54:47;0.00;;;0.00;;
39400;SDS011;54391;50.000;7.360;2023-11-19T03:06:57;0.00;;;0.00;;
39400;SDS011;54391;50.000;7.360;2023-11-19T03:12:15;0.10;;;0.00;;
39400;SDS011;54391;50.000;7.360;2023-11-19T03:14:43;0.15;;;0.05;;
39400;SDS011;54391;50.000;7.360;2023-11-19T03:17:14;0.45;;;0.00;;
39400;SDS011;54391;50.000;7.360;2023-11-19T03:19:41;0.10;;;0.00;;
39400;SDS011;54391;50.000;7.360;2023-11-19T03:22:09;0.30;;;0.10;;
39400;SDS011;54391;50.000;7.360;2023-11-19T03:24:37;0.00;;;0.00;;
39400;SDS011;54391;50.000;7.360;2023-11-19T03:27:04;0.10;;;0.10;;
39400;SDS011;54391;50.000;7.360;2023-11-19T03:29:31;0.22;;;0.10;;
39400;SDS011;54391;50.000;7.360;2023-11-19T03:31:59;0.10;;;0.10;;
39400;SDS011;54391;50.000;7.360;2023-11-19T03:34:27;0.25;;;0.13;;
39400;SDS011;54391;50.000;7.360;2023-11-19T03:36:54;0.13;;;0.10;;
39400;SDS011;54391;50.000;7.360;2023-11-19T03:39:22;0.00;;;0.00;;
39400;SDS011;54391;50.000;7.360;2023-11-19T03:41:50;0.10;;;0.08;;
39400;SDS011;54391;50.000;7.360;2023-11-19T03:44:17;0.10;;;0.10;;
39400;SDS011;54391;50.000;7.360;2023-11-19T03:46:45;0.20;;;0.10;;
39400;SDS011;54391;50.000;7.360;2023-11-19T03:49:14;0.63;;;0.10;;
39400;SDS011;54391;50.000;7.360;2023-11-19T03:51:42;0.30;;;0.10;;
39400;SDS011;54391;50.000;7.360;2023-11-19T03:54:10;0.10;;;0.10;;
39400;SDS011;54391;50.000;7.360;2023-11-19T03:56:37;0.10;;;0.10;;
39400;SDS011;54391;50.000;7.360;2023-11-19T03:59:04;0.73;;;0.10;;
39400;SDS011;54391;50.000;7.360;2023-11-19T04:01:32;0.20;;;0.17;;
39400;SDS011;54391;50.000;7.360;2023-11-19T04:03:59;0.40;;;0.10;;
39400;SDS011;54391;50.000;7.360;2023-11-19T04:06:26;0.17;;;0.10;;
39400;SDS011;54391;50.000;7.360;2023-11-19T04:08:55;0.43;;;0.20;;
39400;SDS011;54391;50.000;7.360;2023-11-19T04:11:22;1.05;;;0.38;;
39400;SDS011;54391;50.000;7.360;2023-11-19T04:13:50;0.40;;;0.28;;
39400;SDS011;54391;50.000;7.360;2023-11-19T04:16:18;0.40;;;0.30;;
39400;SDS011;54391;50.000;7.360;2023-11-19T04:18:45;0.63;;;0.35;;
39400;SDS011;54391;50.000;7.360;2023-11-19T04:21:12;0.40;;;0.20;;
39400;SDS011;54391;50.000;7.360;2023-11-19T04:23:40;0.40;;;0.40;;
39400;SDS011;54391;50.000;7.360;2023-11-19T04:26:09;0.77;;;0.40;;
39400;SDS011;54391;50.000;7.360;2023-11-19T04:28:36;0.82;;;0.40;;
39400;SDS011;54391;50.000;7.360;2023-11-19T04:34:18;1.48;;;0.50;;
39400;SDS011;54391;50.000;7.360;2023-11-19T04:36:45;0.40;;;0.40;;
39400;SDS011;54391;50.000;7.360;2023-11-19T04:39:13;0.47;;;0.30;;
39400;SDS011;54391;50.000;7.360;2023-11-19T04:41:48;0.70;;;0.40;;
39400;SDS011;54391;50.000;7.360;2023-11-19T04:44:17;1.63;;;0.45;;
39400;SDS011;54391;50.000;7.360;2023-11-19T04:46:44;0.50;;;0.40;;
39400;SDS011;54391;50.000;7.360;2023-11-19T04:49:16;0.38;;;0.30;;
39400;SDS011;54391;50.000;7.360;2023-11-19T04:51:44;0.30;;;0.30;;
39400;SDS011;54391;50.000;7.360;2023-11-19T04:54:13;0.30;;;0.20;;
39400;SDS011;54391;50.000;7.360;2023-11-19T04:56:40;0.47;;;0.30;;
39400;SDS011;54391;50.000;7.360;2023-11-19T04:59:13;0.38;;;0.20;;
39400;SDS011;54391;50.000;7.360;2023-11-19T05:01:41;0.28;;;0.20;;
39400;SDS011;54391;50.000;7.360;2023-11-19T05:04:13;0.20;;;0.20;;
39400;SDS011;54391;50.000;7.360;2023-11-19T05:06:40;0.30;;;0.20;;
39400;SDS011;54391;50.000;7.360;2023-11-19T05:09:10;0.40;;;0.30;;
39400;SDS011;54391;50.000;7.360;2023-11-19T05:11:39;0.52;;;0.28;;
39400;SDS011;54391;50.000;7.360;2023-11-19T05:14:07;0.82;;;0.35;;
39400;SDS011;54391;50.000;7.360;2023-11-19T05:16:37;0.25;;;0.20;;
39400;SDS011;54391;50.000;7.360;2023-11-19T05:19:06;1.70;;;0.20;;
39400;SDS011;54391;50.000;7.360;2023-11-19T05:21:34;0.47;;;0.10;;
39400;SDS011;54391;50.000;7.360;2023-11-19T05:24:02;0.65;;;0.20;;
39400;SDS011;54391;50.000;7.360;2023-11-19T05:32:43;0.20;;;0.10;;
39400;SDS011;54391;50.000;7.360;2023-11-19T05:35:10;0.57;;;0.30;;
39400;SDS011;54391;50.000;7.360;2023-11-19T05:37:38;0.40;;;0.30;;
39400;SDS011;54391;50.000;7.360;2023-11-19T05:40:06;0.68;;;0.28;;
39400;SDS011;54391;50.000;7.360;2023-11-19T05:42:40;0.57;;;0.20;;
39400;SDS011;54391;50.000;7.360;2023-11-19T05:45:07;0.38;;;0.28;;
39400;SDS011;54391;50.000;7.360;2023-11-19T05:47:37;0.22;;;0.20;;
39400;SDS011;54391;50.000;7.360;2023-11-19T05:50:06;0.30;;;0.20;;
39400;SDS011;54391;50.000;7.360;2023-11-19T05:56:21;0.40;;;0.30;;
39400;SDS011;54391;50.000;7.360;2023-11-19T05:58:49;0.50;;;0.30;;
39400;SDS011;54391;50.000;7.360;2023-11-19T06:04:10;0.40;;;0.30;;
39400;SDS011;54391;50.000;7.360;2023-11-19T06:09:46;0.70;;;0.25;;
39400;SDS011;54391;50.000;7.360;2023-11-19T06:12:14;0.25;;;0.10;;
39400;SDS011;54391;50.000;7.360;2023-11-19T06:14:41;0.63;;;0.28;;
39400;SDS011;54391;50.000;7.360;2023-11-19T06:17:07;0.20;;;0.20;;
39400;SDS011;54391;50.000;7.360;2023-11-19T06:22:56;0.55;;;0.28;;
39400;SDS011;54391;50.000;7.360;2023-11-19T06:28:12;0.40;;;0.20;;
39400;SDS011;54391;50.000;7.360;2023-11-19T06:30:39;0.25;;;0.20;;
39400;SDS011;54391;50.000;7.360;2023-11-19T06:33:07;0.17;;;0.10;;
39400;SDS011;54391;50.000;7.360;2023-11-19T06:35:34;0.45;;;0.25;;
39400;SDS011;54391;50.000;7.360;2023-11-19T06:38:03;0.52;;;0.28;;
39400;SDS011;54391;50.000;7.360;2023-11-19T06:40:31;0.50;;;0.20;;
39400;SDS011;54391;50.000;7.360;2023-11-19T06:43:00;0.85;;;0.20;;
39400;SDS011;54391;50.000;7.360;2023-11-19T06:45:28;0.65;;;0.30;;
39400;SDS011;54391;50.000;7.360;2023-11-19T06:47:56;0.85;;;0.30;;
39400;SDS011;54391;50.000;7.360;2023-11-19T06:50:24;0.40;;;0.20;;
39400;SDS011;54391;50.000;7.360;2023-11-19T06:52:51;0.55;;;0.20;;
39400;SDS011;54391;50.000;7.360;2023-11-19T06:55:19;0.47;;;0.30;;
39400;SDS011;54391;50.000;7.360;2023-11-19T06:57:47;1.42;;;0.40;;
39400;SDS011;54391;50.000;7.360;2023-11-19T07:00:16;0.82;;;0.40;;
39400;SDS011;54391;50.000;7.360;2023-11-19T07:02:43;1.40;;;0.30;;
39400;SDS011;54391;50.000;7.360;2023-11-19T07:05:10;1.58;;;0.43;;
39400;SDS011;54391;50.000;7.360;2023-11-19T07:07:38;0.40;;;0.30;;
39400;SDS011;54391;50.000;7.360;2023-11-19T07:10:06;0.90;;;0.40;;
39400;SDS011;54391;50.000;7.360;2023-11-19T07:12:36;1.70;;;0.47;;
39400;SDS011;54391;50.000;7.360;2023-11-19T07:18:32;1.85;;;0.50;;
39400;SDS011;54391;50.000;7.360;2023-11-19T07:21:00;1.63;;;0.45;;
39400;SDS011;54391;50.000;7.360;2023-11-19T07:27:15;1.30;;;0.32;;
39400;SDS011;54391;50.000;7.360;2023-11-19T07:29:44;1.92;;;0.35;;
39400;SDS011;54391;50.000;7.360;2023-11-19T07:36:12;2.22;;;0.45;;
39400;SDS011;54391;50.000;7.360;2023-11-19T07:38:39;1.02;;;0.30;;
39400;SDS011;54391;50.000;7.360;2023-11-19T07:41:07;0.93;;;0.40;;
39400;SDS011;54391;50.000;7.360;2023-11-19T07:43:38;2.35;;;0.30;;
39400;SDS011;54391;50.000;7.360;2023-11-19T07:46:11;1.67;;;0.60;;
39400;SDS011;54391;50.000;7.360;2023-11-19T07:48:39;0.82;;;0.35;;
39400;SDS011;54391;50.000;7.360;2023-11-19T07:53:59;1.85;;;0.35;;
39400;SDS011;54391;50.000;7.360;2023-11-19T07:56:26;1.65;;;0.32;;
39400;SDS011;54391;50.000;7.360;2023-11-19T07:58:54;0.82;;;0.30;;
39400;SDS011;54391;50.000;7.360;2023-11-19T08:01:22;1.63;;;0.30;;
39400;SDS011;54391;50.000;7.360;2023-11-19T08:03:50;0.90;;;0.22;;
39400;SDS011;54391;50.000;7.360;2023-11-19T08:06:17;1.95;;;0.40;;
39400;SDS011;54391;50.000;7.360;2023-11-19T08:08:44;1.45;;;0.30;;
39400;SDS011;54391;50.000;7.360;2023-11-19T08:11:13;4.53;;;1.80;;
39400;SDS011;54391;50.000;7.360;2023-11-19T08:13:40;5.47;;;2.05;;
39400;SDS011;54391;50.000;7.360;2023-11-19T08:16:08;7.25;;;4.07;;
39400;SDS011;54391;50.000;7.360;2023-11-19T08:18:37;5.30;;;2.30;;
39400;SDS011;54391;50.000;7.360;2023-11-19T08:21:07;1.90;;;0.70;;
39400;SDS011;54391;50.000;7.360;2023-11-19T08:23:35;4.30;;;0.80;;
39400;SDS011;54391;50.000;7.360;2023-11-19T08:33:39;3.00;;;0.73;;
39400;SDS011;54391;50.000;7.360;2023-11-19T08:36:07;4.25;;;0.93;;
39400;SDS011;54391;50.000;7.360;2023-11-19T08:38:34;4.85;;;0.85;;
39400;SDS011;54391;50.000;7.360;2023-11-19T08:41:02;2.45;;;0.85;;
39400;SDS011;54391;50.000;7.360;2023-11-19T08:43:29;5.97;;;0.90;;
39400;SDS011;54391;50.000;7.360;2023-11-19T08:45:57;5.28;;;0.90;;
39400;SDS011;54391;50.000;7.360;2023-11-19T08:48:24;6.97;;;1.30;;
39400;SDS011;54391;50.000;7.360;2023-11-19T08:50:53;4.57;;;1.40;;
39400;SDS011;54391;50.000;7.360;2023-11-19T08:53:20;6.28;;;1.40;;
39400;SDS011;54391;50.000;7.360;2023-11-19T08:55:47;8.85;;;1.35;;
39400;SDS011;54391;50.000;7.360;2023-11-19T08:58:15;6.70;;;1.30;;
39400;SDS011;54391;50.000;7.360;2023-11-19T09:00:43;7.40;;;1.27;;
39400;SDS011;54391;50.000;7.360;2023-11-19T09:03:10;6.15;;;1.30;;
39400;SDS011;54391;50.000;7.360;2023-11-19T09:05:38;9.00;;;1.80;;
39400;SDS011;54391;50.000;7.360;2023-11-19T09:08:07;5.97;;;1.20;;
39400;SDS011;54391;50.000;7.360;2023-11-19T09:10:36;9.13;;;1.80;;
39400;SDS011;54391;50.000;7.360;2023-11-19T09:13:04;10.40;;;1.48;;
39400;SDS011;54391;50.000;7.360;2023-11-19T09:15:31;6.13;;;1.38;;
39400;SDS011;54391;50.000;7.360;2023-11-19T09:17:59;10.70;;;1.50;;
39400;SDS011;54391;50.000;7.360;2023-11-19T09:20:26;11.85;;;1.85;;
39400;SDS011;54391;50.000;7.360;2023-11-19T09:22:57;6.40;;;1.40;;
39400;SDS011;54391;50.000;7.360;2023-11-19T09:25:26;8.80;;;1.90;;
39400;SDS011;54391;50.000;7.360;2023-11-19T09:27:54;8.15;;;2.15;;
39400;SDS011;54391;50.000;7.360;2023-11-19T09:30:21;7.82;;;1.75;;
39400;SDS011;54391;50.000;7.360;2023-11-19T09:32:49;7.05;;;1.70;;
39400;SDS011;54391;50.000;7.360;2023-11-19T09:35:16;6.78;;;1.42;;
39400;SDS011;54391;50.000;7.360;2023-11-19T09:37:44;9.60;;;2.55;;
39400;SDS011;54391;50.000;7.360;2023-11-19T09:40:11;6.15;;;1.55;;
39400;SDS011;54391;50.000;7.360;2023-11-19T09:42:42;7.57;;;1.58;;
39400;SDS011;54391;50.000;7.360;2023-11-19T09:45:12;7.82;;;1.48;;
39400;SDS011;54391;50.000;7.360;2023-11-19T09:47:42;4.88;;;1.60;;
39400;SDS011;54391;50.000;7.360;2023-11-19T09:50:10;4.35;;;1.45;;
39400;SDS011;54391;50.000;7.360;2023-11-19T09:56:08;7.22;;;1.23;;
39400;SDS011;54391;50.000;7.360;2023-11-19T09:58:40;5.40;;;1.75;;
39400;SDS011;54391;50.000;7.360;2023-11-19T10:01:07;7.00;;;1.42;;
39400;SDS011;54391;50.000;7.360;2023-11-19T10:03:37;4.38;;;1.48;;
39400;SDS011;54391;50.000;7.360;2023-11-19T10:06:06;6.60;;;1.40;;
39400;SDS011;54391;50.000;7.360;2023-11-19T10:08:36;8.68;;;2.20;;
39400;SDS011;54391;50.000;7.360;2023-11-19T10:11:05;8.00;;;2.55;;
39400;SDS011;54391;50.000;7.360;2023-11-19T10:13:33;8.05;;;2.05;;
39400;SDS011;54391;50.000;7.360;2023-11-19T10:16:06;7.38;;;1.60;;
39400;SDS011;54391;50.000;7.360;2023-11-19T10:18:34;7.88;;;1.45;;
39400;SDS011;54391;50.000;7.360;2023-11-19T10:21:03;4.50;;;1.73;;
39400;SDS011;54391;50.000;7.360;2023-11-19T10:23:46;7.32;;;1.67;;
39400;SDS011;54391;50.000;7.360;2023-11-19T10:26:14;10.15;;;2.10;;
39400;SDS011;54391;50.000;7.360;2023-11-19T10:28:42;6.15;;;1.67;;
39400;SDS011;54391;50.000;7.360;2023-11-19T10:31:12;7.97;;;2.17;;
39400;SDS011;54391;50.000;7.360;2023-11-19T10:33:40;6.70;;;1.73;;
39400;SDS011;54391;50.000;7.360;2023-11-19T10:36:10;7.00;;;1.88;;
39400;SDS011;54391;50.000;7.360;2023-11-19T10:38:38;5.03;;;1.40;;
39400;SDS011;54391;50.000;7.360;2023-11-19T10:41:06;5.00;;;1.23;;
39400;SDS011;54391;50.000;7.360;2023-11-19T10:43:42;10.07;;;1.48;;
39400;SDS011;54391;50.000;7.360;2023-11-19T10:46:10;8.43;;;2.00;;
39400;SDS011;54391;50.000;7.360;2023-11-19T10:48:39;9.18;;;1.80;;
39400;SDS011;54391;50.000;7.360;2023-11-19T10:51:07;8.10;;;1.60;;
39400;SDS011;54391;50.000;7.360;2023-11-19T10:53:39;7.15;;;1.50;;
39400;SDS011;54391;50.000;7.360;2023-11-19T10:56:10;6.18;;;1.73;;
39400;SDS011;54391;50.000;7.360;2023-11-19T10:58:40;7.85;;;2.22;;
39400;SDS011;54391;50.000;7.360;2023-11-19T11:01:11;6.78;;;1.67;;
39400;SDS011;54391;50.000;7.360;2023-11-19T11:03:42;5.47;;;1.52;;
39400;SDS011;54391;50.000;7.360;2023-11-19T11:06:11;8.05;;;1.80;;
39400;SDS011;54391;50.000;7.360;2023-11-19T11:08:40;9.88;;;1.90;;
39400;SDS011;54391;50.000;7.360;2023-11-19T11:11:07;4.50;;;1.23;;
39400;SDS011;54391;50.000;7.360;2023-11-19T11:13:35;6.35;;;1.30;;
39400;SDS011;54391;50.000;7.360;2023-11-19T11:16:04;4.50;;;1.17;;
39400;SDS011;54391;50.000;7.360;2023-11-19T11:18:33;9.98;;;1.52;;
39400;SDS011;54391;50.000;7.360;2023-11-19T11:21:02;6.38;;;1.35;;
39400;SDS011;54391;50.000;7.360;2023-11-19T11:23:40;5.57;;;1.30;;
39400;SDS011;54391;50.000;7.360;2023-11-19T11:26:20;8.57;;;2.08;;
39400;SDS011;54391;50.000;7.360;2023-11-19T11:28:52;7.32;;;1.65;;
39400;SDS011;54391;50.000;7.360;2023-11-19T11:31:30;8.55;;;1.45;;
39400;SDS011;54391;50.000;7.360;2023-11-19T11:34:02;6.65;;;1.20;;
39400;SDS011;54391;50.000;7.360;2023-11-19T11:36:35;5.13;;;1.40;;
39400;SDS011;54391;50.000;7.360;2023-11-19T11:39:10;6.80;;;1.30;;
39400;SDS011;54391;50.000;7.360;2023-11-19T11:41:38;6.28;;;1.33;;
39400;SDS011;54391;50.000;7.360;2023-11-19T11:44:06;6.95;;;1.20;;
39400;SDS011;54391;50.000;7.360;2023-11-19T11:49:26;6.45;;;1.40;;
39400;SDS011;54391;50.000;7.360;2023-11-19T11:52:00;7.15;;;1.40;;
39400;SDS011;54391;50.000;7.360;2023-11-19T11:54:28;6.65;;;1.55;;
39400;SDS011;54391;50.000;7.360;2023-11-19T11:57:03;9.77;;;1.23;;
39400;SDS011;54391;50.000;7.360;2023-11-19T11:59:42;7.85;;;2.10;;
39400;SDS011;54391;50.000;7.360;2023-11-19T12:02:11;9.43;;;1.90;;
39400;SDS011;54391;50.000;7.360;2023-11-19T12:04:39;5.05;;;1.08;;
39400;SDS011;54391;50.000;7.360;2023-11-19T12:07:12;12.80;;;2.40;;
39400;SDS011;54391;50.000;7.360;2023-11-19T12:09:40;7.68;;;1.45;;
39400;SDS011;54391;50.000;7.360;2023-11-19T12:12:11;7.53;;;2.03;;
39400;SDS011;54391;50.000;7.360;2023-11-19T12:17:36;10.02;;;1.85;;
39400;SDS011;54391;50.000;7.360;2023-11-19T12:20:06;12.27;;;2.17;;
39400;SDS011;54391;50.000;7.360;2023-11-19T12:22:36;8.80;;;1.48;;
39400;SDS011;54391;50.000;7.360;2023-11-19T12:25:04;8.60;;;1.77;;
39400;SDS011;54391;50.000;7.360;2023-11-19T12:27:32;8.13;;;1.73;;
39400;SDS011;54391;50.000;7.360;2023-11-19T12:30:00;7.70;;;1.58;;
39400;SDS011;54391;50.000;7.360;2023-11-19T12:32:37;15.10;;;2.42;;
39400;SDS011;54391;50.000;7.360;2023-11-19T12:35:23;10.63;;;1.63;;
39400;SDS011;54391;50.000;7.360;2023-11-19T12:41:22;8.18;;;2.25;;
39400;SDS011;54391;50.000;7.360;2023-11-19T12:43:49;8.10;;;1.65;;
39400;SDS011;54391;50.000;7.360;2023-11-19T12:46:17;7.97;;;1.55;;
39400;SDS011;54391;50.000;7.360;2023-11-19T12:48:45;8.50;;;2.63;;
39400;SDS011;54391;50.000;7.360;2023-11-19T12:51:13;12.63;;;1.90;;
39400;SDS011;54391;50.000;7.360;2023-11-19T12:53:47;10.15;;;1.73;;
39400;SDS011;54391;50.000;7.360;2023-11-19T12:56:15;5.93;;;1.33;;
39400;SDS011;54391;50.000;7.360;2023-11-19T12:58:44;15.30;;;1.98;;
39400;SDS011;54391;50.000;7.360;2023-11-19T13:01:15;8.82;;;1.88;;
39400;SDS011;54391;50.000;7.360;2023-11-19T13:03:43;8.23;;;1.90;;
39400;SDS011;54391;50.000;7.360;2023-11-19T13:06:11;8.35;;;1.45;;
39400;SDS011;54391;50.000;7.360;2023-11-19T13:08:39;9.23;;;1.40;;
39400;SDS011;54391;50.000;7.360;2023-11-19T13:11:07;9.07;;;2.13;;
39400;SDS011;54391;50.000;7.360;2023-11-19T13:13:55;10.80;;;1.90;;
39400;SDS011;54391;50.000;7.360;2023-11-19T13:16:23;12.75;;;2.30;;
39400;SDS011;54391;50.000;7.360;2023-11-19T13:18:51;13.55;;;2.13;;
39400;SDS011;54391;50.000;7.360;2023-11-19T13:21:18;12.88;;;2.30;;
39400;SDS011;54391;50.000;7.360;2023-11-19T13:23:46;9.57;;;1.98;;
39400;SDS011;54391;50.000;7.360;2023-11-19T13:26:13;6.90;;;1.83;;
39400;SDS011;54391;50.000;7.360;2023-11-19T13:28:40;11.73;;;1.65;;
39400;SDS011;54391;50.000;7.360;2023-11-19T13:31:09;10.75;;;2.17;;
39400;SDS011;54391;50.000;7.360;2023-11-19T13:33:37;8.75;;;1.88;;
39400;SDS011;54391;50.000;7.360;2023-11-19T13:36:05;16.33;;;2.22;;
39400;SDS011;54391;50.000;7.360;2023-11-19T13:38:33;8.95;;;1.92;;
39400;SDS011;54391;50.000;7.360;2023-11-19T13:41:00;10.73;;;1.80;;
39400;SDS011;54391;50.000;7.360;2023-11-19T13:43:28;12.15;;;1.98;;
39400;SDS011;54391;50.000;7.360;2023-11-19T13:45:55;11.93;;;2.15;;
39400;SDS011;54391;50.000;7.360;2023-11-19T13:48:27;11.23;;;2.00;;
39400;SDS011;54391;50.000;7.360;2023-11-19T13:50:54;12.18;;;2.10;;
39400;SDS011;54391;50.000;7.360;2023-11-19T13:53:22;9.15;;;2.00;;
39400;SDS011;54391;50.000;7.360;2023-11-19T13:55:50;12.55;;;2.05;;
39400;SDS011;54391;50.000;7.360;2023-11-19T13:58:18;10.73;;;1.50;;
39400;SDS011;54391;50.000;7.360;2023-11-19T14:00:45;9.98;;;1.60;;
39400;SDS011;54391;50.000;7.360;2023-11-19T14:03:13;8.43;;;1.85;;
39400;SDS011;54391;50.000;7.360;2023-11-19T14:05:42;11.57;;;2.42;;
39400;SDS011;54391;50.000;7.360;2023-11-19T14:08:09;12.05;;;2.00;;
39400;SDS011;54391;50.000;7.360;2023-11-19T14:10:37;13.18;;;2.15;;
39400;SDS011;54391;50.000;7.360;2023-11-19T14:13:05;9.68;;;1.83;;
39400;SDS011;54391;50.000;7.360;2023-11-19T14:15:33;9.73;;;2.13;;
39400;SDS011;54391;50.000;7.360;2023-11-19T14:18:01;13.13;;;2.03;;
39400;SDS011;54391;50.000;7.360;2023-11-19T14:20:29;10.48;;;2.03;;
39400;SDS011;54391;50.000;7.360;2023-11-19T14:22:57;9.23;;;1.80;;
39400;SDS011;54391;50.000;7.360;2023-11-19T14:25:25;11.82;;;1.63;;
39400;SDS011;54391;50.000;7.360;2023-11-19T14:27:52;9.77;;;1.83;;
39400;SDS011;54391;50.000;7.360;2023-11-19T14:30:20;11.25;;;1.83;;
39400;SDS011;54391;50.000;7.360;2023-11-19T14:32:47;6.53;;;1.95;;
39400;SDS011;54391;50.000;7.360;2023-11-19T14:35:15;13.20;;;1.98;;
39400;SDS011;54391;50.000;7.360;2023-11-19T14:37:42;11.48;;;2.08;;
39400;SDS011;54391;50.000;7.360;2023-11-19T14:40:11;11.32;;;1.92;;
39400;SDS011;54391;50.000;7.360;2023-11-19T14:42:39;15.20;;;2.60;;
39400;SDS011;54391;50.000;7.360;2023-11-19T14:45:07;9.38;;;2.40;;
39400;SDS011;54391;50.000;7.360;2023-11-19T14:47:37;8.15;;;2.13;;
39400;SDS011;54391;50.000;7.360;2023-11-19T14:50:05;8.50;;;1.52;;
39400;SDS011;54391;50.000;7.360;2023-11-19T14:52:34;9.48;;;2.75;;
39400;SDS011;54391;50.000;7.360;2023-11-19T14:55:02;6.78;;;1.70;;
39400;SDS011;54391;50.000;7.360;2023-11-19T14:57:37;7.78;;;1.52;;
39400;SDS011;54391;50.000;7.360;2023-11-19T15:00:07;13.07;;;2.00;;
39400;SDS011;54391;50.000;7.360;2023-11-19T15:02:38;7.00;;;1.60;;
39400;SDS011;54391;50.000;7.360;2023-11-19T15:05:07;7.22;;;1.65;;
39400;SDS011;54391;50.000;7.360;2023-11-19T15:07:35;11.00;;;1.80;;
39400;SDS011;54391;50.000;7.360;2023-11-19T15:10:03;8.77;;;1.77;;
39400;SDS011;54391;50.000;7.360;2023-11-19T15:12:35;13.73;;;2.40;;
39400;SDS011;54391;50.000;7.360;2023-11-19T15:15:07;9.68;;;1.67;;
39400;SDS011;54391;50.000;7.360;2023-11-19T15:17:38;5.75;;;1.35;;
39400;SDS011;54391;50.000;7.360;2023-11-19T15:20:06;8.65;;;1.67;;
39400;SDS011;54391;50.000;7.360;2023-11-19T15:22:34;11.43;;;1.67;;
39400;SDS011;54391;50.000;7.360;2023-11-19T15:25:01;8.55;;;2.00;;
39400;SDS011;54391;50.000;7.360;2023-11-19T15:27:31;5.95;;;2.10;;
39400;SDS011;54391;50.000;7.360;2023-11-19T15:29:59;8.82;;;1.50;;
39400;SDS011;54391;50.000;7.360;2023-11-19T15:32:28;7.38;;;1.83;;
39400;SDS011;54391;50.000;7.360;2023-11-19T15:34:57;9.60;;;2.00;;
39400;SDS011;54391;50.000;7.360;2023-11-19T15:37:24;6.68;;;1.58;;
39400;SDS011;54391;50.000;7.360;2023-11-19T15:39:52;6.40;;;1.88;;
39400;SDS011;54391;50.000;7.360;2023-11-19T15:42:19;10.57;;;1.38;;
39400;SDS011;54391;50.000;7.360;2023-11-19T15:44:47;12.10;;;1.80;;
39400;SDS011;54391;50.000;7.360;2023-11-19T15:47:15;14.43;;;2.15;;
39400;SDS011;54391;50.000;7.360;2023-11-19T15:49:44;8.52;;;2.20;;
39400;SDS011;54391;50.000;7.360;2023-11-19T15:52:13;11.13;;;2.45;;
39400;SDS011;54391;50.000;7.360;2023-11-19T15:54:41;11.95;;;1.95;;
39400;SDS011;54391;50.000;7.360;2023-11-19T15:57:10;9.50;;;1.90;;
39400;SDS011;54391;50.000;7.360;2023-11-19T15:59:38;12.43;;;2.13;;
39400;SDS011;54391;50.000;7.360;2023-11-19T16:02:05;7.72;;;1.92;;
39400;SDS011;54391;50.000;7.360;2023-11-19T16:04:33;12.52;;;2.03;;
39400;SDS011;54391;50.000;7.360;2023-11-19T16:07:02;7.88;;;1.77;;
39400;SDS011;54391;50.000;7.360;2023-11-19T16:09:30;14.43;;;2.25;;
39400;SDS011;54391;50.000;7.360;2023-11-19T16:11:58;12.77;;;1.60;;
39400;SDS011;54391;50.000;7.360;2023-11-19T16:14:25;11.25;;;2.10;;
39400;SDS011;54391;50.000;7.360;2023-11-19T16:16:53;13.10;;;2.03;;